sensor_id;sensor_type;location;lat;lon;timestamp;temperature;humidity
19330;DHT22;9799;48.214;16.388;2022-08-19T00:02:14;24.60;99.90
19330;DHT22;9799;48.214;16.388;2022-08-19T00:05:35;24.70;99.90
19330;DHT22;9799;48.214;16.388;2022-08-19T00:08:58;24.60;99.90
19330;DHT22;9799;48.214;16.388;2022-08-19T00:12:21;24.40;99.90
19330;DHT22;9799;48.214;16.388;2022-08-19T00:15:42;24.30;99.90
19330;DHT22;9799;48.214;16.388;2022-08-19T00:19:04;24.30;99.90
19330;DHT22;9799;48.214;16.388;2022-08-19T00:22:26;24.30;99.90
19330;DHT22;9799;48.214;16.388;2022-08-19T00:25:48;24.10;99.90
19330;DHT22;9799;48.214;16.388;2022-08-19T00:29:12;24.10;99.90
19330;DHT22;9799;48.214;16.388;2022-08-19T00:32:34;24.20;99.90
19330;DHT22;9799;48.214;16.388;2022-08-19T00:35:55;24.10;99.90
19330;DHT22;9799;48.214;16.388;2022-08-19T00:39:17;24.10;99.90
19330;DHT22;9799;48.214;16.388;2022-08-19T00:42:38;24.10;99.90
19330;DHT22;9799;48.214;16.388;2022-08-19T00:46:01;24.10;99.90
19330;DHT22;9799;48.214;16.388;2022-08-19T00:49:28;24.10;99.90
19330;DHT22;9799;48.214;16.388;2022-08-19T00:52:50;24.10;99.90
19330;DHT22;9799;48.214;16.388;2022-08-19T00:56:12;24.00;99.90
19330;DHT22;9799;48.214;16.388;2022-08-19T00:59:35;23.90;99.90
19330;DHT22;9799;48.214;16.388;2022-08-19T01:02:59;23.90;99.90
19330;DHT22;9799;48.214;16.388;2022-08-19T01:06:21;23.80;99.90
19330;DHT22;9799;48.214;16.388;2022-08-19T01:09:42;23.80;99.90
19330;DHT22;9799;48.214;16.388;2022-08-19T01:13:04;23.70;99.90
19330;DHT22;9799;48.214;16.388;2022-08-19T01:16:27;23.80;99.90
19330;DHT22;9799;48.214;16.388;2022-08-19T01:19:50;23.70;99.90
19330;DHT22;9799;48.214;16.388;2022-08-19T01:23:14;23.80;99.90
19330;DHT22;9799;48.214;16.388;2022-08-19T01:26:39;23.70;99.90
19330;DHT22;9799;48.214;16.388;2022-08-19T01:30:01;23.80;99.90
19330;DHT22;9799;48.214;16.388;2022-08-19T01:33:22;23.70;99.90
19330;DHT22;9799;48.214;16.388;2022-08-19T01:36:45;23.80;99.90
19330;DHT22;9799;48.214;16.388;2022-08-19T01:40:10;24.00;99.90
19330;DHT22;9799;48.214;16.388;2022-08-19T01:43:31;24.00;99.90
19330;DHT22;9799;48.214;16.388;2022-08-19T01:46:53;24.00;99.90
19330;DHT22;9799;48.214;16.388;2022-08-19T01:50:14;24.10;99.90
19330;DHT22;9799;48.214;16.388;2022-08-19T01:53:36;24.10;99.90
19330;DHT22;9799;48.214;16.388;2022-08-19T01:57:02;23.90;99.90
19330;DHT22;9799;48.214;16.388;2022-08-19T02:00:26;23.90;99.90
19330;DHT22;9799;48.214;16.388;2022-08-19T02:03:48;23.80;99.90
19330;DHT22;9799;48.214;16.388;2022-08-19T02:07:12;23.60;99.90
19330;DHT22;9799;48.214;16.388;2022-08-19T02:10:33;23.50;99.90
19330;DHT22;9799;48.214;16.388;2022-08-19T02:13:55;23.50;99.90
19330;DHT22;9799;48.214;16.388;2022-08-19T02:17:17;23.60;99.90
19330;DHT22;9799;48.214;16.388;2022-08-19T02:20:39;23.50;99.90
19330;DHT22;9799;48.214;16.388;2022-08-19T02:24:01;23.50;99.90
19330;DHT22;9799;48.214;16.388;2022-08-19T02:27:23;23.50;99.90
19330;DHT22;9799;48.214;16.388;2022-08-19T02:30:47;23.50;99.90
19330;DHT22;9799;48.214;16.388;2022-08-19T02:34:09;23.50;99.90
19330;DHT22;9799;48.214;16.388;2022-08-19T02:37:30;23.70;99.90
19330;DHT22;9799;48.214;16.388;2022-08-19T02:41:17;23.90;99.90
19330;DHT22;9799;48.214;16.388;2022-08-19T02:44:39;24.10;99.90
19330;DHT22;9799;48.214;16.388;2022-08-19T02:48:01;24.20;99.90
19330;DHT22;9799;48.214;16.388;2022-08-19T02:51:25;24.30;99.90
19330;DHT22;9799;48.214;16.388;2022-08-19T02:54:46;24.40;99.90
19330;DHT22;9799;48.214;16.388;2022-08-19T02:58:07;24.40;99.90
19330;DHT22;9799;48.214;16.388;2022-08-19T03:01:30;24.40;99.90
19330;DHT22;9799;48.214;16.388;2022-08-19T03:04:53;24.40;99.90
19330;DHT22;9799;48.214;16.388;2022-08-19T03:08:14;24.50;99.90
19330;DHT22;9799;48.214;16.388;2022-08-19T03:11:36;24.30;99.90
19330;DHT22;9799;48.214;16.388;2022-08-19T03:14:57;24.10;99.90
19330;DHT22;9799;48.214;16.388;2022-08-19T03:18:18;24.00;99.90
19330;DHT22;9799;48.214;16.388;2022-08-19T03:21:43;23.70;99.90
19330;DHT22;9799;48.214;16.388;2022-08-19T03:25:05;23.50;99.90
19330;DHT22;9799;48.214;16.388;2022-08-19T03:28:26;23.40;99.90
19330;DHT22;9799;48.214;16.388;2022-08-19T03:31:48;23.20;99.90
19330;DHT22;9799;48.214;16.388;2022-08-19T03:35:09;23.20;99.90
19330;DHT22;9799;48.214;16.388;2022-08-19T03:38:32;23.20;99.90
19330;DHT22;9799;48.214;16.388;2022-08-19T03:41:54;23.10;99.90
19330;DHT22;9799;48.214;16.388;2022-08-19T03:45:17;23.10;99.90
19330;DHT22;9799;48.214;16.388;2022-08-19T03:48:40;23.00;99.90
19330;DHT22;9799;48.214;16.388;2022-08-19T03:52:02;22.80;99.90
19330;DHT22;9799;48.214;16.388;2022-08-19T03:55:28;22.80;99.90
19330;DHT22;9799;48.214;16.388;2022-08-19T03:58:49;22.90;99.90
19330;DHT22;9799;48.214;16.388;2022-08-19T04:02:11;22.90;99.90
19330;DHT22;9799;48.214;16.388;2022-08-19T04:05:33;22.80;99.90
19330;DHT22;9799;48.214;16.388;2022-08-19T04:08:55;22.70;99.90
19330;DHT22;9799;48.214;16.388;2022-08-19T04:12:19;22.80;99.90
19330;DHT22;9799;48.214;16.388;2022-08-19T04:15:41;22.70;99.90
19330;DHT22;9799;48.214;16.388;2022-08-19T04:19:04;22.80;99.90
19330;DHT22;9799;48.214;16.388;2022-08-19T04:22:25;22.70;99.90
19330;DHT22;9799;48.214;16.388;2022-08-19T04:25:47;22.70;99.90
19330;DHT22;9799;48.214;16.388;2022-08-19T04:29:12;22.90;99.90
19330;DHT22;9799;48.214;16.388;2022-08-19T04:32:34;22.90;99.90
19330;DHT22;9799;48.214;16.388;2022-08-19T04:35:55;23.00;99.90
19330;DHT22;9799;48.214;16.388;2022-08-19T04:39:18;23.10;99.90
19330;DHT22;9799;48.214;16.388;2022-08-19T04:42:39;23.30;99.90
19330;DHT22;9799;48.214;16.388;2022-08-19T04:46:06;23.40;99.90
19330;DHT22;9799;48.214;16.388;2022-08-19T04:49:27;23.40;99.90
19330;DHT22;9799;48.214;16.388;2022-08-19T04:52:50;23.60;99.90
19330;DHT22;9799;48.214;16.388;2022-08-19T04:56:14;23.70;99.90
19330;DHT22;9799;48.214;16.388;2022-08-19T04:59:37;23.80;99.90
19330;DHT22;9799;48.214;16.388;2022-08-19T05:03:01;23.80;99.90
19330;DHT22;9799;48.214;16.388;2022-08-19T05:06:23;23.80;99.90
19330;DHT22;9799;48.214;16.388;2022-08-19T05:09:45;23.70;99.90
19330;DHT22;9799;48.214;16.388;2022-08-19T05:13:06;23.70;99.90
19330;DHT22;9799;48.214;16.388;2022-08-19T05:16:30;23.80;99.90
19330;DHT22;9799;48.214;16.388;2022-08-19T05:19:53;23.80;99.90
19330;DHT22;9799;48.214;16.388;2022-08-19T05:23:32;24.00;99.90
19330;DHT22;9799;48.214;16.388;2022-08-19T05:26:54;24.10;99.90
19330;DHT22;9799;48.214;16.388;2022-08-19T05:30:17;24.20;99.90
19330;DHT22;9799;48.214;16.388;2022-08-19T05:33:39;24.40;99.90
19330;DHT22;9799;48.214;16.388;2022-08-19T05:37:02;24.40;99.90
19330;DHT22;9799;48.214;16.388;2022-08-19T05:40:24;24.40;99.90
19330;DHT22;9799;48.214;16.388;2022-08-19T05:43:45;24.50;99.90
19330;DHT22;9799;48.214;16.388;2022-08-19T05:47:07;24.40;99.90
19330;DHT22;9799;48.214;16.388;2022-08-19T05:50:29;24.40;99.90
19330;DHT22;9799;48.214;16.388;2022-08-19T05:53:51;24.40;99.90
19330;DHT22;9799;48.214;16.388;2022-08-19T05:57:14;24.40;99.90
19330;DHT22;9799;48.214;16.388;2022-08-19T06:00:36;24.30;99.90
19330;DHT22;9799;48.214;16.388;2022-08-19T06:03:57;24.20;99.90
19330;DHT22;9799;48.214;16.388;2022-08-19T06:07:19;24.20;99.90
19330;DHT22;9799;48.214;16.388;2022-08-19T06:10:41;24.30;99.90
19330;DHT22;9799;48.214;16.388;2022-08-19T06:14:06;24.30;99.90
19330;DHT22;9799;48.214;16.388;2022-08-19T06:17:28;24.40;99.90
19330;DHT22;9799;48.214;16.388;2022-08-19T06:20:50;24.40;99.90
19330;DHT22;9799;48.214;16.388;2022-08-19T06:24:13;24.40;99.90
19330;DHT22;9799;48.214;16.388;2022-08-19T06:27:36;24.40;99.90
19330;DHT22;9799;48.214;16.388;2022-08-19T06:30:57;24.30;99.90
19330;DHT22;9799;48.214;16.388;2022-08-19T06:34:19;24.40;99.90
19330;DHT22;9799;48.214;16.388;2022-08-19T06:37:40;24.50;99.90
19330;DHT22;9799;48.214;16.388;2022-08-19T06:41:03;24.60;99.90
19330;DHT22;9799;48.214;16.388;2022-08-19T06:44:30;24.60;99.90
19330;DHT22;9799;48.214;16.388;2022-08-19T06:47:56;24.70;99.90
19330;DHT22;9799;48.214;16.388;2022-08-19T06:51:17;24.80;99.90
19330;DHT22;9799;48.214;16.388;2022-08-19T06:54:39;24.90;99.90
19330;DHT22;9799;48.214;16.388;2022-08-19T06:58:01;25.00;99.90
19330;DHT22;9799;48.214;16.388;2022-08-19T07:01:25;25.10;99.90
19330;DHT22;9799;48.214;16.388;2022-08-19T07:04:47;25.20;99.90
19330;DHT22;9799;48.214;16.388;2022-08-19T07:08:08;25.20;99.90
19330;DHT22;9799;48.214;16.388;2022-08-19T07:11:29;25.30;99.90
19330;DHT22;9799;48.214;16.388;2022-08-19T07:14:50;25.20;99.90
19330;DHT22;9799;48.214;16.388;2022-08-19T07:18:14;25.40;99.90
19330;DHT22;9799;48.214;16.388;2022-08-19T07:21:35;25.40;99.90
19330;DHT22;9799;48.214;16.388;2022-08-19T07:24:56;25.40;99.90
19330;DHT22;9799;48.214;16.388;2022-08-19T07:28:18;25.40;99.90
19330;DHT22;9799;48.214;16.388;2022-08-19T07:31:40;25.50;99.90
19330;DHT22;9799;48.214;16.388;2022-08-19T07:35:03;25.60;99.90
19330;DHT22;9799;48.214;16.388;2022-08-19T07:38:25;25.70;99.90
19330;DHT22;9799;48.214;16.388;2022-08-19T07:41:47;25.70;99.90
19330;DHT22;9799;48.214;16.388;2022-08-19T07:45:08;25.80;99.90
19330;DHT22;9799;48.214;16.388;2022-08-19T07:48:30;26.00;99.90
19330;DHT22;9799;48.214;16.388;2022-08-19T07:51:55;26.00;99.90
19330;DHT22;9799;48.214;16.388;2022-08-19T07:55:24;26.10;99.90
19330;DHT22;9799;48.214;16.388;2022-08-19T07:58:47;26.20;99.90
19330;DHT22;9799;48.214;16.388;2022-08-19T08:02:09;26.30;99.90
19330;DHT22;9799;48.214;16.388;2022-08-19T08:05:30;26.50;99.90
19330;DHT22;9799;48.214;16.388;2022-08-19T08:09:11;26.70;99.90
19330;DHT22;9799;48.214;16.388;2022-08-19T08:12:40;26.70;99.90
19330;DHT22;9799;48.214;16.388;2022-08-19T08:16:02;26.80;99.90
19330;DHT22;9799;48.214;16.388;2022-08-19T08:19:25;27.00;99.90
19330;DHT22;9799;48.214;16.388;2022-08-19T08:22:47;27.10;99.90
19330;DHT22;9799;48.214;16.388;2022-08-19T08:26:27;27.00;99.90
19330;DHT22;9799;48.214;16.388;2022-08-19T08:29:49;27.30;99.90
19330;DHT22;9799;48.214;16.388;2022-08-19T08:33:10;27.20;99.90
19330;DHT22;9799;48.214;16.388;2022-08-19T08:36:31;27.30;99.90
19330;DHT22;9799;48.214;16.388;2022-08-19T08:39:53;27.30;99.90
19330;DHT22;9799;48.214;16.388;2022-08-19T08:43:24;27.50;99.90
19330;DHT22;9799;48.214;16.388;2022-08-19T08:46:49;27.70;99.90
19330;DHT22;9799;48.214;16.388;2022-08-19T08:50:17;27.70;99.90
19330;DHT22;9799;48.214;16.388;2022-08-19T08:53:40;27.80;99.90
19330;DHT22;9799;48.214;16.388;2022-08-19T08:57:09;27.80;99.90
19330;DHT22;9799;48.214;16.388;2022-08-19T09:00:37;28.00;99.90
19330;DHT22;9799;48.214;16.388;2022-08-19T09:04:00;27.90;99.90
19330;DHT22;9799;48.214;16.388;2022-08-19T09:07:33;27.70;99.90
19330;DHT22;9799;48.214;16.388;2022-08-19T09:11:00;27.90;99.90
19330;DHT22;9799;48.214;16.388;2022-08-19T09:14:41;28.20;99.90
19330;DHT22;9799;48.214;16.388;2022-08-19T09:18:08;28.50;99.90
19330;DHT22;9799;48.214;16.388;2022-08-19T09:21:29;28.60;99.90
19330;DHT22;9799;48.214;16.388;2022-08-19T09:24:51;28.50;99.90
19330;DHT22;9799;48.214;16.388;2022-08-19T09:28:13;28.40;99.90
19330;DHT22;9799;48.214;16.388;2022-08-19T09:31:34;28.40;99.90
19330;DHT22;9799;48.214;16.388;2022-08-19T09:34:56;28.50;99.90
19330;DHT22;9799;48.214;16.388;2022-08-19T09:38:18;28.40;99.90
19330;DHT22;9799;48.214;16.388;2022-08-19T09:41:39;28.40;99.90
19330;DHT22;9799;48.214;16.388;2022-08-19T09:45:00;28.60;99.90
19330;DHT22;9799;48.214;16.388;2022-08-19T09:48:21;28.70;99.90
19330;DHT22;9799;48.214;16.388;2022-08-19T09:51:44;28.90;99.90
19330;DHT22;9799;48.214;16.388;2022-08-19T09:55:09;29.00;99.90
19330;DHT22;9799;48.214;16.388;2022-08-19T09:58:31;29.10;99.90
19330;DHT22;9799;48.214;16.388;2022-08-19T10:01:52;29.10;99.90
19330;DHT22;9799;48.214;16.388;2022-08-19T10:05:16;29.30;99.90
19330;DHT22;9799;48.214;16.388;2022-08-19T10:08:55;29.30;99.90
19330;DHT22;9799;48.214;16.388;2022-08-19T10:12:17;29.30;99.90
19330;DHT22;9799;48.214;16.388;2022-08-19T10:15:38;29.30;99.90
19330;DHT22;9799;48.214;16.388;2022-08-19T10:19:00;29.30;99.90
19330;DHT22;9799;48.214;16.388;2022-08-19T10:22:22;29.30;99.90
19330;DHT22;9799;48.214;16.388;2022-08-19T10:25:45;29.30;99.90
19330;DHT22;9799;48.214;16.388;2022-08-19T10:29:07;29.50;99.90
19330;DHT22;9799;48.214;16.388;2022-08-19T10:32:29;29.20;99.90
19330;DHT22;9799;48.214;16.388;2022-08-19T10:35:59;28.90;99.90
19330;DHT22;9799;48.214;16.388;2022-08-19T10:39:20;28.80;99.90
19330;DHT22;9799;48.214;16.388;2022-08-19T10:42:42;28.60;99.90
19330;DHT22;9799;48.214;16.388;2022-08-19T10:46:05;28.60;99.90
19330;DHT22;9799;48.214;16.388;2022-08-19T10:49:26;28.60;99.90
19330;DHT22;9799;48.214;16.388;2022-08-19T10:52:48;28.70;99.90
19330;DHT22;9799;48.214;16.388;2022-08-19T10:56:09;28.60;99.90
19330;DHT22;9799;48.214;16.388;2022-08-19T10:59:46;28.60;99.90
19330;DHT22;9799;48.214;16.388;2022-08-19T11:03:07;28.50;99.90
19330;DHT22;9799;48.214;16.388;2022-08-19T11:06:29;28.50;99.90
19330;DHT22;9799;48.214;16.388;2022-08-19T11:09:50;28.40;99.90
19330;DHT22;9799;48.214;16.388;2022-08-19T11:13:11;28.40;99.90
19330;DHT22;9799;48.214;16.388;2022-08-19T11:16:33;28.00;99.90
19330;DHT22;9799;48.214;16.388;2022-08-19T11:19:55;27.50;99.90
19330;DHT22;9799;48.214;16.388;2022-08-19T11:23:16;27.10;99.90
19330;DHT22;9799;48.214;16.388;2022-08-19T11:26:38;26.90;99.90
19330;DHT22;9799;48.214;16.388;2022-08-19T11:29:59;26.90;99.90
19330;DHT22;9799;48.214;16.388;2022-08-19T11:33:24;26.90;99.90
19330;DHT22;9799;48.214;16.388;2022-08-19T11:36:48;26.90;99.90
19330;DHT22;9799;48.214;16.388;2022-08-19T11:40:11;27.30;99.90
19330;DHT22;9799;48.214;16.388;2022-08-19T11:43:32;27.70;99.90
19330;DHT22;9799;48.214;16.388;2022-08-19T11:46:54;28.10;99.90
19330;DHT22;9799;48.214;16.388;2022-08-19T11:50:17;28.10;99.90
19330;DHT22;9799;48.214;16.388;2022-08-19T11:53:39;28.10;99.90
19330;DHT22;9799;48.214;16.388;2022-08-19T11:57:01;28.30;99.90
19330;DHT22;9799;48.214;16.388;2022-08-19T12:00:23;28.70;99.90
19330;DHT22;9799;48.214;16.388;2022-08-19T12:03:44;28.70;99.90
19330;DHT22;9799;48.214;16.388;2022-08-19T12:07:07;29.00;99.90
19330;DHT22;9799;48.214;16.388;2022-08-19T12:10:28;29.10;99.90
19330;DHT22;9799;48.214;16.388;2022-08-19T12:13:50;29.10;99.90
19330;DHT22;9799;48.214;16.388;2022-08-19T12:17:11;28.90;99.90
19330;DHT22;9799;48.214;16.388;2022-08-19T12:20:34;28.80;99.90
19330;DHT22;9799;48.214;16.388;2022-08-19T12:23:59;28.80;99.90
19330;DHT22;9799;48.214;16.388;2022-08-19T12:27:21;28.90;99.90
19330;DHT22;9799;48.214;16.388;2022-08-19T12:30:42;29.00;99.90
19330;DHT22;9799;48.214;16.388;2022-08-19T12:34:03;29.50;99.90
19330;DHT22;9799;48.214;16.388;2022-08-19T12:37:24;29.70;99.90
19330;DHT22;9799;48.214;16.388;2022-08-19T12:40:47;29.40;99.90
19330;DHT22;9799;48.214;16.388;2022-08-19T12:44:09;29.20;99.90
19330;DHT22;9799;48.214;16.388;2022-08-19T12:47:32;29.10;99.90
19330;DHT22;9799;48.214;16.388;2022-08-19T12:50:53;28.90;99.90
19330;DHT22;9799;48.214;16.388;2022-08-19T12:54:14;28.70;99.90
19330;DHT22;9799;48.214;16.388;2022-08-19T12:57:36;28.50;99.90
19330;DHT22;9799;48.214;16.388;2022-08-19T13:00:58;28.50;99.90
19330;DHT22;9799;48.214;16.388;2022-08-19T13:04:19;28.50;99.90
19330;DHT22;9799;48.214;16.388;2022-08-19T13:07:40;28.60;99.90
19330;DHT22;9799;48.214;16.388;2022-08-19T13:11:08;28.60;99.90
19330;DHT22;9799;48.214;16.388;2022-08-19T13:14:32;28.60;99.90
19330;DHT22;9799;48.214;16.388;2022-08-19T13:17:54;28.60;99.90
19330;DHT22;9799;48.214;16.388;2022-08-19T13:21:16;28.40;99.90
19330;DHT22;9799;48.214;16.388;2022-08-19T13:24:39;28.50;99.90
19330;DHT22;9799;48.214;16.388;2022-08-19T13:28:01;28.60;99.90
19330;DHT22;9799;48.214;16.388;2022-08-19T13:31:25;28.60;99.90
19330;DHT22;9799;48.214;16.388;2022-08-19T13:35:04;28.60;99.90
19330;DHT22;9799;48.214;16.388;2022-08-19T13:38:26;28.30;99.90
19330;DHT22;9799;48.214;16.388;2022-08-19T13:41:47;28.10;99.90
19330;DHT22;9799;48.214;16.388;2022-08-19T13:45:09;27.90;99.90
19330;DHT22;9799;48.214;16.388;2022-08-19T13:48:32;28.00;99.90
19330;DHT22;9799;48.214;16.388;2022-08-19T13:51:54;27.90;99.90
19330;DHT22;9799;48.214;16.388;2022-08-19T13:55:15;27.70;99.90
19330;DHT22;9799;48.214;16.388;2022-08-19T13:58:37;27.50;99.90
19330;DHT22;9799;48.214;16.388;2022-08-19T14:01:59;27.60;99.90
19330;DHT22;9799;48.214;16.388;2022-08-19T14:05:23;27.60;99.90
19330;DHT22;9799;48.214;16.388;2022-08-19T14:08:44;27.60;99.90
19330;DHT22;9799;48.214;16.388;2022-08-19T14:12:07;27.70;99.90
19330;DHT22;9799;48.214;16.388;2022-08-19T14:15:28;27.70;99.90
19330;DHT22;9799;48.214;16.388;2022-08-19T14:18:50;27.80;99.90
19330;DHT22;9799;48.214;16.388;2022-08-19T14:22:13;27.70;99.90
19330;DHT22;9799;48.214;16.388;2022-08-19T14:25:34;27.50;99.90
19330;DHT22;9799;48.214;16.388;2022-08-19T14:28:55;27.90;99.90
19330;DHT22;9799;48.214;16.388;2022-08-19T14:32:18;28.00;99.90
19330;DHT22;9799;48.214;16.388;2022-08-19T14:35:39;28.00;99.90
19330;DHT22;9799;48.214;16.388;2022-08-19T14:39:06;27.90;99.90
19330;DHT22;9799;48.214;16.388;2022-08-19T14:42:27;27.90;99.90
19330;DHT22;9799;48.214;16.388;2022-08-19T14:45:48;27.90;99.90
19330;DHT22;9799;48.214;16.388;2022-08-19T14:49:09;27.90;99.90
19330;DHT22;9799;48.214;16.388;2022-08-19T14:52:30;27.90;99.90
19330;DHT22;9799;48.214;16.388;2022-08-19T14:55:53;27.90;99.90
19330;DHT22;9799;48.214;16.388;2022-08-19T14:59:14;27.90;99.90
19330;DHT22;9799;48.214;16.388;2022-08-19T15:02:35;27.80;99.90
19330;DHT22;9799;48.214;16.388;2022-08-19T15:05:57;27.90;99.90
19330;DHT22;9799;48.214;16.388;2022-08-19T15:09:18;28.00;99.90
19330;DHT22;9799;48.214;16.388;2022-08-19T15:12:41;27.80;99.90
19330;DHT22;9799;48.214;16.388;2022-08-19T15:16:03;27.90;99.90
19330;DHT22;9799;48.214;16.388;2022-08-19T15:19:24;27.90;99.90
19330;DHT22;9799;48.214;16.388;2022-08-19T15:22:46;27.90;99.90
19330;DHT22;9799;48.214;16.388;2022-08-19T15:26:07;27.90;99.90
19330;DHT22;9799;48.214;16.388;2022-08-19T15:29:31;28.00;99.90
19330;DHT22;9799;48.214;16.388;2022-08-19T15:32:53;28.00;99.90
19330;DHT22;9799;48.214;16.388;2022-08-19T15:36:14;28.10;99.90
19330;DHT22;9799;48.214;16.388;2022-08-19T15:39:36;28.00;99.90
19330;DHT22;9799;48.214;16.388;2022-08-19T15:42:57;28.00;99.90
19330;DHT22;9799;48.214;16.388;2022-08-19T15:46:22;28.10;99.90
19330;DHT22;9799;48.214;16.388;2022-08-19T15:49:43;28.00;99.90
19330;DHT22;9799;48.214;16.388;2022-08-19T15:53:08;28.00;99.90
19330;DHT22;9799;48.214;16.388;2022-08-19T15:56:29;28.00;99.90
19330;DHT22;9799;48.214;16.388;2022-08-19T16:00:17;27.90;99.90
19330;DHT22;9799;48.214;16.388;2022-08-19T16:03:57;27.80;99.90
19330;DHT22;9799;48.214;16.388;2022-08-19T16:07:36;27.90;99.90
19330;DHT22;9799;48.214;16.388;2022-08-19T16:10:57;28.00;99.90
19330;DHT22;9799;48.214;16.388;2022-08-19T16:14:19;28.10;99.90
19330;DHT22;9799;48.214;16.388;2022-08-19T16:17:42;28.10;99.90
19330;DHT22;9799;48.214;16.388;2022-08-19T16:21:05;28.10;99.90
19330;DHT22;9799;48.214;16.388;2022-08-19T16:24:27;28.00;99.90
19330;DHT22;9799;48.214;16.388;2022-08-19T16:27:48;27.80;99.90
19330;DHT22;9799;48.214;16.388;2022-08-19T16:31:09;27.70;99.90
19330;DHT22;9799;48.214;16.388;2022-08-19T16:34:33;27.70;99.90
19330;DHT22;9799;48.214;16.388;2022-08-19T16:37:54;27.70;99.90
19330;DHT22;9799;48.214;16.388;2022-08-19T16:41:15;27.70;99.90
19330;DHT22;9799;48.214;16.388;2022-08-19T16:44:41;27.70;99.90
19330;DHT22;9799;48.214;16.388;2022-08-19T16:48:02;27.70;99.90
19330;DHT22;9799;48.214;16.388;2022-08-19T16:51:25;27.70;99.90
19330;DHT22;9799;48.214;16.388;2022-08-19T16:54:47;27.70;99.90
19330;DHT22;9799;48.214;16.388;2022-08-19T16:58:08;27.70;99.90
19330;DHT22;9799;48.214;16.388;2022-08-19T17:01:29;27.60;99.90
19330;DHT22;9799;48.214;16.388;2022-08-19T17:04:51;27.50;99.90
19330;DHT22;9799;48.214;16.388;2022-08-19T17:08:14;27.40;99.90
19330;DHT22;9799;48.214;16.388;2022-08-19T17:11:35;27.40;99.90
19330;DHT22;9799;48.214;16.388;2022-08-19T17:14:57;27.40;99.90
19330;DHT22;9799;48.214;16.388;2022-08-19T17:18:18;27.40;99.90
19330;DHT22;9799;48.214;16.388;2022-08-19T17:21:40;27.30;99.90
19330;DHT22;9799;48.214;16.388;2022-08-19T17:25:02;27.30;99.90
19330;DHT22;9799;48.214;16.388;2022-08-19T17:28:26;27.20;99.90
19330;DHT22;9799;48.214;16.388;2022-08-19T17:31:47;27.20;99.90
19330;DHT22;9799;48.214;16.388;2022-08-19T17:35:08;27.10;99.90
19330;DHT22;9799;48.214;16.388;2022-08-19T17:38:30;27.10;99.90
19330;DHT22;9799;48.214;16.388;2022-08-19T17:41:54;27.00;99.90
19330;DHT22;9799;48.214;16.388;2022-08-19T17:45:16;27.00;99.90
19330;DHT22;9799;48.214;16.388;2022-08-19T17:48:39;27.00;99.90
19330;DHT22;9799;48.214;16.388;2022-08-19T17:52:02;27.00;99.90
19330;DHT22;9799;48.214;16.388;2022-08-19T17:55:23;27.00;99.90
19330;DHT22;9799;48.214;16.388;2022-08-19T17:58:46;27.00;99.90
19330;DHT22;9799;48.214;16.388;2022-08-19T18:02:09;26.90;99.90
19330;DHT22;9799;48.214;16.388;2022-08-19T18:05:33;26.80;99.90
19330;DHT22;9799;48.214;16.388;2022-08-19T18:08:56;26.80;99.90
19330;DHT22;9799;48.214;16.388;2022-08-19T18:12:21;26.70;99.90
19330;DHT22;9799;48.214;16.388;2022-08-19T18:15:44;26.70;99.90
19330;DHT22;9799;48.214;16.388;2022-08-19T18:19:06;26.70;99.90
19330;DHT22;9799;48.214;16.388;2022-08-19T18:22:31;26.70;99.90
19330;DHT22;9799;48.214;16.388;2022-08-19T18:25:55;26.70;99.90
19330;DHT22;9799;48.214;16.388;2022-08-19T18:29:16;26.60;99.90
19330;DHT22;9799;48.214;16.388;2022-08-19T18:32:39;26.50;99.90
19330;DHT22;9799;48.214;16.388;2022-08-19T18:36:00;26.50;99.90
19330;DHT22;9799;48.214;16.388;2022-08-19T18:39:23;26.50;99.90
19330;DHT22;9799;48.214;16.388;2022-08-19T18:43:01;26.50;99.90
19330;DHT22;9799;48.214;16.388;2022-08-19T18:46:37;26.50;99.90
19330;DHT22;9799;48.214;16.388;2022-08-19T18:50:16;26.50;99.90
19330;DHT22;9799;48.214;16.388;2022-08-19T18:53:40;26.50;99.90
19330;DHT22;9799;48.214;16.388;2022-08-19T18:57:01;26.40;99.90
19330;DHT22;9799;48.214;16.388;2022-08-19T19:00:24;26.40;99.90
19330;DHT22;9799;48.214;16.388;2022-08-19T19:03:47;26.50;99.90
19330;DHT22;9799;48.214;16.388;2022-08-19T19:07:11;26.50;99.90
19330;DHT22;9799;48.214;16.388;2022-08-19T19:10:32;26.50;99.90
19330;DHT22;9799;48.214;16.388;2022-08-19T19:13:55;26.50;99.90
19330;DHT22;9799;48.214;16.388;2022-08-19T19:17:16;26.50;99.90
19330;DHT22;9799;48.214;16.388;2022-08-19T19:20:44;26.50;99.90
19330;DHT22;9799;48.214;16.388;2022-08-19T19:24:07;26.50;99.90
19330;DHT22;9799;48.214;16.388;2022-08-19T19:27:32;26.50;99.90
19330;DHT22;9799;48.214;16.388;2022-08-19T19:30:55;26.50;99.90
19330;DHT22;9799;48.214;16.388;2022-08-19T19:34:19;26.50;99.90
19330;DHT22;9799;48.214;16.388;2022-08-19T19:37:40;26.50;99.90
19330;DHT22;9799;48.214;16.388;2022-08-19T19:41:04;26.50;99.90
19330;DHT22;9799;48.214;16.388;2022-08-19T19:44:25;26.50;99.90
19330;DHT22;9799;48.214;16.388;2022-08-19T19:47:46;26.40;99.90
19330;DHT22;9799;48.214;16.388;2022-08-19T19:51:08;26.20;99.90
19330;DHT22;9799;48.214;16.388;2022-08-19T19:54:30;26.00;99.90
19330;DHT22;9799;48.214;16.388;2022-08-19T19:57:52;26.00;99.90
19330;DHT22;9799;48.214;16.388;2022-08-19T20:01:14;25.80;99.90
19330;DHT22;9799;48.214;16.388;2022-08-19T20:04:35;25.70;99.90
19330;DHT22;9799;48.214;16.388;2022-08-19T20:07:56;25.50;99.90
19330;DHT22;9799;48.214;16.388;2022-08-19T20:11:38;25.40;99.90
19330;DHT22;9799;48.214;16.388;2022-08-19T20:15:01;25.10;99.90
19330;DHT22;9799;48.214;16.388;2022-08-19T20:18:23;25.10;99.90
19330;DHT22;9799;48.214;16.388;2022-08-19T20:21:46;25.00;99.90
19330;DHT22;9799;48.214;16.388;2022-08-19T20:25:09;24.90;99.90
19330;DHT22;9799;48.214;16.388;2022-08-19T20:28:31;24.90;99.90
19330;DHT22;9799;48.214;16.388;2022-08-19T20:31:53;24.80;99.90
19330;DHT22;9799;48.214;16.388;2022-08-19T20:35:19;24.70;99.90
19330;DHT22;9799;48.214;16.388;2022-08-19T20:38:40;24.60;99.90
19330;DHT22;9799;48.214;16.388;2022-08-19T20:42:02;24.70;99.90
19330;DHT22;9799;48.214;16.388;2022-08-19T20:45:24;24.60;99.90
19330;DHT22;9799;48.214;16.388;2022-08-19T20:48:47;24.60;99.90
19330;DHT22;9799;48.214;16.388;2022-08-19T20:52:08;24.50;99.90
19330;DHT22;9799;48.214;16.388;2022-08-19T20:55:30;24.50;99.90
19330;DHT22;9799;48.214;16.388;2022-08-19T20:58:51;24.60;99.90
19330;DHT22;9799;48.214;16.388;2022-08-19T21:02:12;24.60;99.90
19330;DHT22;9799;48.214;16.388;2022-08-19T21:05:34;24.50;99.90
19330;DHT22;9799;48.214;16.388;2022-08-19T21:08:56;24.60;99.90
19330;DHT22;9799;48.214;16.388;2022-08-19T21:12:17;24.70;99.90
19330;DHT22;9799;48.214;16.388;2022-08-19T21:15:39;24.70;99.90
19330;DHT22;9799;48.214;16.388;2022-08-19T21:19:02;24.60;99.90
19330;DHT22;9799;48.214;16.388;2022-08-19T21:22:25;24.60;99.90